• Join FlightAware (Why Join?)
  • Login
  • US Flag 
01:24AM EDT


 

Airport Tracker/Info


-or-


 

Live Flight TrackerFlight Track Log ✈ AWE3988 ✈ 15-Dec-2013 ✈ KPHL - KMHT

Flight Track Log - Related Links

Times and Time Zones

All times are in EST time to prevent confusion due to time zone crossing. See the AWE3988 flight status page for this flight to view local times or setup timezone preferences in your user account.

Time Position Orientation Groundspeed Altitude Reporting Facility
EST Latitude Longitude Course Direction KTS MPH feet Rate Location/Type
02:41PM 39.8167 -75.3000 191° South 209 241 3,200  Level Philadelphia TRACON
02:42PM 39.7500 -75.3167 205° Southwest 251 289 6,100 2,280 Climbing Philadelphia TRACON
02:43PM 39.7000 -75.2667 142° Southeast 311 358 8,000 1,860 Climbing Philadelphia TRACON
02:45PM 39.7283 -75.0842 79° East 335 386 11,100 1,500 Climbing New York Center
02:46PM 39.7492 -74.9639 77° East 356 410 12,000 420 Climbing New York Center
02:47PM 39.7747 -74.8358 75° East 393 452 12,000 660 Level New York Center
02:48PM 39.8603 -74.7111 48° Northeast 393 452 13,400 1,620 Climbing New York Center
02:49PM 39.9472 -74.6022 44° Northeast 406 467 15,300 2,100 Climbing New York Center
02:50PM 40.0406 -74.4853 44° Northeast 419 482 17,600 2,100 Climbing New York Center
02:51PM 40.1206 -74.3947 41° Northeast 419 482 19,500 1,800 Climbing New York Center
02:52PM 40.2150 -74.3044 36° Northeast 419 482 21,300 1,620 Climbing New York Center
02:53PM 40.3153 -74.2253 31° Northeast 414 476 22,800 1,500 Climbing New York Center
02:54PM 40.4153 -74.1483 30° Northeast 414 476 24,300 1,200 Climbing New York Center
02:55PM 40.5211 -74.0992 19° North 415 478 25,300 1,020 Climbing New York Center
02:56PM 40.6358 -74.0911 North 394 453 26,400 540 Climbing New York Center
02:58PM 40.8889 -74.0589 North 432 497 27,000 180 Climbing Boston Center
02:59PM 41.0136 -74.0433 North 443 510 27,000  Level Boston Center
03:00PM 41.1403 -74.0258 North 453 521 27,000  Level Boston Center
03:01PM 41.2692 -74.0069 North 462 532 27,000  Level Boston Center
03:02PM 41.4008 -73.9897 North 472 543 27,000  Level Boston Center
03:03PM 41.5311 -73.9717 North 470 541 27,000  Level Boston Center
03:04PM 41.6617 -73.9533 North 471 542 27,000  Level Boston Center
03:05PM 41.8106 -73.9331 North 469 540 27,000  Level Boston Center
03:06PM 41.9411 -73.9142 North 470 541 27,000  Level Boston Center
03:07PM 42.0561 -73.8144 33° Northeast 504 580 27,000  Level Boston Center
03:08PM 42.1367 -73.6394 58° Northeast 521 600 27,000 -1,020 Level Boston Center
03:09PM 42.2167 -73.4736 57° Northeast 524 603 25,000 -2,040 Descending Boston Center
03:10PM 42.2928 -73.3211 56° Northeast 525 604 23,000 -2,040 Descending Boston Center
03:11PM 42.3656 -73.1650 58° Northeast 500 575 20,900 -1,980 Descending Boston Center
03:12PM 42.4308 -72.9908 63° Northeast 458 527 19,000 -960 Descending Boston Center
03:13PM 42.4861 -72.8386 64° Northeast 448 516 19,000 -60 Level Boston Center
03:14PM 42.5417 -72.6883 63° Northeast 446 513 18,900 -1,200 Descending Boston Center
03:15PM 42.5936 -72.5528 62° Northeast 434 499 16,600 -2,160 Descending Boston Center
03:16PM 42.6433 -72.4161 64° Northeast 415 478 14,600 -1,800 Descending Boston Center
03:17PM 42.6892 -72.2914 63° Northeast 383 441 13,000 -1,680 Descending Boston Center
03:18PM 42.7400 -72.1578 63° Northeast 348 400 11,300 -1,680 Descending Boston Center
03:19PM 42.7567 -72.0325 80° East 338 389 9,700 -1,560 Descending Boston Center
03:20PM 42.7647 -71.9136 85° East 319 367 8,200 -1,560 Descending Boston Center
03:21PM 42.7700 -71.7981 86° East 305 351 6,600 -1,620 Descending Boston Center
03:22PM 42.7703 -71.6797 90° East 293 337 5,000 -1,380 Descending Boston Center
03:23PM 42.7711 -71.5714 89° East 288 331 3,800 -1,080 Descending Boston Center
03:24PM 42.7717 -71.4672 90° East 280 322 2,800 -900 Descending Boston Center
03:25PM 42.7964 -71.3814 69° East 248 285 2,000 -480 Descending Boston Center
03:26PM 42.8467 -71.3819 360° North 170 196 1,900 -420 Descending Boston Center
03:27PM 42.8814 -71.4025 337° Northwest 139 160 1,200 -780 Descending Boston Center
03:28PM 42.9156 -71.4242 335° Northwest 135 155 400 -420 Descending Boston Center
03:29PM 42.9442 -71.4422 335° Northwest 135 155 400  Level Boston Center